createdAt,value
2019-03-16T00:01:13.139Z,7.91
2019-03-16T00:11:13.200Z,7.89
2019-03-16T00:21:13.128Z,7.84
2019-03-16T00:31:13.232Z,7.83
2019-03-16T00:41:13.255Z,7.80
2019-03-16T00:51:13.094Z,7.76
2019-03-16T01:01:13.127Z,7.67
2019-03-16T01:11:13.200Z,7.59
2019-03-16T01:21:13.160Z,7.52
2019-03-16T01:31:13.266Z,7.47
2019-03-16T01:41:14.912Z,7.46
2019-03-16T01:51:13.169Z,7.55
2019-03-16T02:01:13.162Z,7.77
2019-03-16T02:11:13.170Z,7.78
2019-03-16T02:21:13.131Z,7.72
2019-03-16T02:31:13.155Z,7.69
2019-03-16T02:41:13.255Z,7.64
2019-03-16T02:51:13.172Z,7.54
2019-03-16T03:01:13.171Z,7.52
2019-03-16T03:11:13.275Z,7.39
2019-03-16T03:21:13.179Z,7.32
2019-03-16T03:31:13.130Z,7.38
2019-03-16T03:41:13.016Z,7.47
2019-03-16T03:51:13.003Z,7.56
2019-03-16T04:01:13.081Z,8.08
2019-03-16T04:11:13.024Z,8.76
2019-03-16T04:21:13.105Z,9.05
2019-03-16T04:31:13.121Z,9.14
2019-03-16T04:41:13.160Z,9.25
2019-03-16T04:51:13.136Z,9.28
2019-03-16T05:01:13.195Z,9.29
2019-03-16T05:11:13.155Z,9.33
2019-03-16T05:21:13.151Z,9.39
2019-03-16T05:31:13.245Z,9.33
2019-03-16T05:41:13.178Z,9.22
2019-03-16T05:51:13.179Z,9.17
2019-03-16T06:01:13.174Z,9.17
2019-03-16T06:11:13.252Z,9.15
2019-03-16T06:21:13.127Z,9.17
2019-03-16T06:31:13.107Z,9.14
2019-03-16T06:41:13.103Z,9.06
2019-03-16T06:51:13.153Z,9.04
2019-03-16T07:01:13.168Z,9.13
2019-03-16T07:11:13.183Z,9.13
2019-03-16T07:21:13.200Z,9.15
2019-03-16T07:31:13.093Z,9.20
2019-03-16T07:41:13.171Z,9.23
2019-03-16T07:51:13.037Z,9.19
2019-03-16T08:01:13.034Z,9.28
2019-03-16T08:11:13.131Z,9.37
2019-03-16T08:21:13.109Z,9.55
2019-03-16T08:31:13.139Z,9.50
2019-03-16T08:41:13.217Z,9.42
2019-03-16T08:51:13.182Z,9.45
2019-03-16T09:01:13.080Z,9.46
2019-03-16T09:11:13.077Z,9.46
2019-03-16T09:21:13.009Z,9.66
2019-03-16T09:31:13.088Z,9.94
2019-03-16T09:41:13.068Z,10.18
2019-03-16T09:51:13.141Z,10.27
2019-03-16T10:01:15.355Z,11.05
2019-03-16T10:11:13.092Z,11.23
2019-03-16T10:21:13.036Z,10.98
2019-03-16T10:31:13.154Z,11.57
2019-03-16T10:41:13.125Z,11.22
2019-03-16T10:51:13.092Z,10.90
2019-03-16T11:01:13.067Z,10.65
2019-03-16T11:11:13.091Z,10.42
2019-03-16T11:21:13.115Z,10.20
2019-03-16T11:31:13.127Z,10.25
2019-03-16T11:41:13.076Z,10.46
2019-03-16T11:51:13.071Z,10.37
2019-03-16T12:01:13.058Z,10.28
2019-03-16T12:11:13.037Z,10.27
2019-03-16T12:21:13.036Z,10.35
2019-03-16T12:31:12.988Z,10.30
2019-03-16T12:41:13.053Z,10.30
2019-03-16T12:51:13.130Z,10.37
2019-03-16T13:01:13.303Z,10.31
2019-03-16T13:11:13.042Z,10.29
2019-03-16T13:21:13.122Z,10.35
2019-03-16T13:31:12.999Z,10.51
2019-03-16T13:41:13.058Z,10.52
2019-03-16T13:51:13.123Z,10.56
2019-03-16T14:01:12.893Z,10.62
2019-03-16T14:11:13.043Z,10.65
2019-03-16T14:21:13.102Z,10.68
2019-03-16T14:31:13.017Z,10.63
2019-03-16T14:41:13.073Z,10.56
2019-03-16T14:51:13.101Z,10.53
2019-03-16T15:01:13.423Z,10.54
2019-03-16T15:11:16.020Z,10.53
2019-03-16T15:21:13.034Z,10.57
2019-03-16T15:31:13.126Z,10.64
2019-03-16T15:41:12.974Z,10.65
2019-03-16T15:51:13.044Z,10.55
2019-03-16T16:01:12.938Z,10.56
2019-03-16T16:11:13.003Z,10.69
2019-03-16T16:21:12.982Z,10.66
2019-03-16T16:31:16.491Z,10.60
2019-03-16T16:41:13.074Z,10.48
2019-03-16T16:51:13.003Z,10.44
2019-03-16T17:01:12.997Z,10.42
2019-03-16T17:11:13.047Z,10.42
2019-03-16T17:21:13.031Z,10.35
2019-03-16T17:31:13.041Z,10.28
2019-03-16T17:41:13.152Z,10.24
2019-03-16T17:51:12.966Z,10.12
2019-03-16T18:01:12.995Z,10.08
2019-03-16T18:11:12.958Z,9.93
2019-03-16T18:21:13.042Z,9.86
2019-03-16T18:31:12.990Z,9.79
2019-03-16T18:41:13.116Z,9.67
2019-03-16T18:51:13.004Z,9.58
2019-03-16T19:01:13.154Z,9.73
2019-03-16T19:11:13.004Z,9.77
2019-03-16T19:21:13.063Z,9.77
2019-03-16T19:31:13.010Z,9.65
2019-03-16T19:41:12.946Z,9.60
2019-03-16T19:51:12.990Z,9.52
2019-03-16T20:01:13.006Z,9.49
2019-03-16T20:11:12.884Z,9.49
2019-03-16T20:21:12.966Z,9.53
2019-03-16T20:31:12.963Z,9.55
2019-03-16T20:41:12.946Z,9.57
2019-03-16T20:51:13.003Z,9.72
2019-03-16T21:01:13.139Z,9.68
2019-03-16T21:11:12.932Z,9.83
2019-03-16T21:21:13.150Z,10.01
2019-03-16T21:31:12.908Z,10.06
2019-03-16T21:41:13.025Z,10.17
2019-03-16T21:51:12.957Z,10.30
2019-03-16T22:01:12.964Z,10.30
2019-03-16T22:11:13.068Z,10.35
2019-03-16T22:21:12.963Z,10.37
2019-03-16T22:31:13.075Z,10.37
2019-03-16T22:41:13.580Z,10.41
2019-03-16T22:51:12.997Z,10.41
2019-03-16T23:01:12.855Z,10.39
2019-03-16T23:11:13.050Z,10.37
2019-03-16T23:21:12.986Z,10.32
2019-03-16T23:31:12.925Z,10.30
2019-03-16T23:41:12.931Z,10.26
2019-03-16T23:51:13.034Z,10.23
